Big Bear Station Historical Data
Daily Summary for January 7, 2019 Units:  English    Metric   Both
Next Day »
Daily Weekly Monthly Yearly Custom
  High: Low: Average:
Temperature: 43.0 °F 25.5 °F 32.5 °F
Dew Point: 36.3 °F 24.7 °F 29.2 °F
Humidity: 97% 53% 89%
Wind Speed: 2.7mph 0.0mph 0.1mph
Wind Gust: -999.0mph - -
Wind- - South
Pressure: 23.61 in 23.49 in -
Precipitation: 0.99 in    
Historical Graphs
 
 
Tabular Data for January 7, 2019
Time Temperature Dew Point Pressure Wind Wind Speed Wind Gust Humidity Rainfall Rate (Hourly)
00:13 27.7 °F 26.2 °F 23.50 in Calm   -999.0 mph 94% 0.00 in
00:28 28.2 °F 27.0 °F 23.49 in Calm   -999.0 mph 95% 0.00 in
00:43 28.6 °F 27.6 °F 23.49 in Calm   -999.0 mph 96% 0.00 in
00:59 28.8 °F 27.8 °F 23.50 in Calm   -999.0 mph 96% 0.00 in
01:14 28.8 °F 27.8 °F 23.50 in Calm   -999.0 mph 96% 0.00 in
01:29 28.9 °F 27.9 °F 23.50 in Calm   -999.0 mph 96% 0.00 in
01:44 29.3 °F 28.3 °F 23.50 in Calm   -999.0 mph 96% 0.00 in
01:59 29.7 °F 28.7 °F 23.50 in Calm   -999.0 mph 96% 0.00 in
02:15 29.8 °F 28.8 °F 23.50 in Calm   -999.0 mph 96% 0.00 in
02:30 30.0 °F 29.0 °F 23.50 in Calm   -999.0 mph 96% 0.00 in
02:45 29.8 °F 28.8 °F 23.50 in Calm   -999.0 mph 96% 0.00 in
03:00 29.8 °F 28.8 °F 23.50 in Calm   -999.0 mph 96% 0.00 in
03:15 29.7 °F 28.7 °F 23.50 in Calm   -999.0 mph 96% 0.00 in
03:31 29.7 °F 28.7 °F 23.50 in Calm   -999.0 mph 96% 0.00 in
03:46 29.7 °F 28.7 °F 23.50 in Calm   -999.0 mph 96% 0.00 in
04:01 29.7 °F 29.0 °F 23.50 in Calm   -999.0 mph 97% 0.00 in
04:16 29.7 °F 29.0 °F 23.50 in Calm   -999.0 mph 97% 0.00 in
04:31 29.7 °F 29.0 °F 23.51 in Calm   -999.0 mph 97% 0.00 in
04:47 29.8 °F 29.1 °F 23.51 in Calm   -999.0 mph 97% 0.00 in
05:02 30.0 °F 29.3 °F 23.51 in Calm   -999.0 mph 97% 0.00 in
05:17 30.0 °F 29.3 °F 23.52 in Calm   -999.0 mph 97% 0.00 in
05:32 30.0 °F 29.3 °F 23.53 in Calm   -999.0 mph 97% 0.00 in
05:48 29.7 °F 29.0 °F 23.53 in Calm   -999.0 mph 97% 0.00 in
06:03 29.1 °F 28.4 °F 23.54 in Calm   -999.0 mph 97% 0.00 in
06:18 28.8 °F 28.1 °F 23.54 in Calm   -999.0 mph 97% 0.00 in
06:33 28.8 °F 28.1 °F 23.54 in Calm   -999.0 mph 97% 0.00 in
06:48 28.9 °F 28.2 °F 23.54 in Calm   -999.0 mph 97% 0.00 in
07:04 28.9 °F 28.2 °F 23.55 in Calm   -999.0 mph 97% 0.00 in
07:19 29.3 °F 28.6 °F 23.55 in Calm   -999.0 mph 97% 0.00 in
07:35 30.0 °F 29.3 °F 23.55 in Calm   -999.0 mph 97% 0.00 in
07:50 30.4 °F 29.7 °F 23.56 in Calm   -999.0 mph 97% 0.00 in
08:05 30.7 °F 29.9 °F 23.56 in Calm   -999.0 mph 97% 0.00 in
08:20 31.1 °F 30.1 °F 23.57 in Calm   -999.0 mph 96% 0.00 in
08:35 31.5 °F 30.5 °F 23.57 in Calm   -999.0 mph 96% 0.00 in
08:51 32.0 °F 30.7 °F 23.59 in Calm   -999.0 mph 95% 0.00 in
09:06 33.1 °F 31.6 °F 23.60 in Calm   -999.0 mph 94% 0.00 in
09:21 33.6 °F 32.1 °F 23.60 in Calm   -999.0 mph 94% 0.00 in
09:36 34.2 °F 32.1 °F 23.60 in Calm   -999.0 mph 92% 0.00 in
09:51 34.5 °F 32.1 °F 23.60 in Calm   -999.0 mph 91% 0.00 in
10:07 34.7 °F 32.6 °F 23.60 in Calm   -999.0 mph 92% 0.00 in
10:22 34.7 °F 32.3 °F 23.60 in Calm   -999.0 mph 91% 0.00 in
10:37 35.1 °F 33.0 °F 23.59 in Calm   -999.0 mph 92% 0.00 in
10:52 35.1 °F 33.0 °F 23.59 in Calm   -999.0 mph 92% 0.00 in
11:07 36.1 °F 34.0 °F 23.59 in Calm   -999.0 mph 92% 0.00 in
11:23 37.2 °F 34.3 °F 23.58 in Calm   -999.0 mph 89% 0.00 in
11:38 38.1 °F 35.1 °F 23.57 in Calm   -999.0 mph 89% 0.00 in
11:53 38.7 °F 34.6 °F 23.57 in Calm   -999.0 mph 85% 0.00 in
12:08 40.5 °F 36.3 °F 23.56 in Calm   -999.0 mph 85% 0.00 in
12:24 40.5 °F 35.4 °F 23.56 in Calm   -999.0 mph 82% 0.00 in
12:39 42.8 °F 35.1 °F 23.56 in Calm   -999.0 mph 74% 0.00 in
12:54 42.3 °F 32.9 °F 23.56 in Calm   -999.0 mph 69% 0.00 in
13:09 43.0 °F 29.2 °F 23.56 in Calm   -999.0 mph 58% 0.00 in
13:24 42.4 °F 31.5 °F 23.55 in Calm   -999.0 mph 65% 0.00 in
13:40 41.9 °F 30.2 °F 23.55 in Calm   -999.0 mph 63% 0.00 in
13:55 42.3 °F 31.0 °F 23.55 in Calm   -999.0 mph 64% 0.00 in
14:10 42.6 °F 28.4 °F 23.55 in Calm   -999.0 mph 57% 0.00 in
14:25 42.3 °F 26.4 °F 23.56 in Calm   -999.0 mph 53% 0.00 in
14:40 42.1 °F 31.6 °F 23.56 in Calm   -999.0 mph 66% 0.00 in
14:56 41.9 °F 26.9 °F 23.56 in Calm   -999.0 mph 55% 0.00 in
15:11 41.9 °F 29.8 °F 23.57 in Calm   -999.0 mph 62% 0.00 in
15:26 41.4 °F 33.7 °F 23.57 in Calm   -999.0 mph 74% 0.00 in
15:41 41.0 °F 33.0 °F 23.57 in Calm   -999.0 mph 73% 0.00 in
15:56 40.6 °F 31.9 °F 23.57 in Calm   -999.0 mph 71% 0.00 in
16:12 39.2 °F 31.9 °F 23.57 in Calm   -999.0 mph 75% 0.00 in
16:27 37.9 °F 32.6 °F 23.57 in Calm   -999.0 mph 81% 0.00 in
16:42 36.9 °F 31.6 °F 23.58 in Calm   -999.0 mph 81% 0.00 in
16:57 35.6 °F 30.3 °F 23.58 in Calm   -999.0 mph 81% 0.00 in
17:12 34.3 °F 29.7 °F 23.58 in Calm   -999.0 mph 83% 0.00 in
17:28 33.4 °F 29.1 °F 23.58 in Calm   -999.0 mph 84% 0.00 in
17:43 32.5 °F 28.8 °F 23.58 in Calm   -999.0 mph 86% 0.00 in
17:58 31.8 °F 28.1 °F 23.58 in Calm   -999.0 mph 86% 0.00 in
18:13 31.6 °F 28.5 °F 23.59 in Calm   -999.0 mph 88% 0.00 in
18:28 30.9 °F 27.8 °F 23.59 in Calm   -999.0 mph 88% 0.00 in
18:44 30.6 °F 27.7 °F 23.59 in Calm   -999.0 mph 89% 0.00 in
18:59 30.2 °F 27.4 °F 23.59 in Calm   -999.0 mph 89% 0.00 in
19:14 29.7 °F 26.9 °F 23.60 in Calm   -999.0 mph 89% 0.00 in
19:29 29.3 °F 26.7 °F 23.60 in Calm   -999.0 mph 90% 0.00 in
19:45 28.9 °F 26.3 °F 23.60 in Calm   -999.0 mph 90% 0.00 in
20:00 28.8 °F 26.2 °F 23.60 in Calm   -999.0 mph 90% 0.00 in
20:15 28.2 °F 25.9 °F 23.60 in Calm   -999.0 mph 91% 0.00 in
20:30 28.0 °F 26.0 °F 23.60 in Calm   -999.0 mph 92% 0.00 in
20:45 27.7 °F 25.9 °F 23.60 in Calm   -999.0 mph 93% 0.00 in
21:01 27.5 °F 26.0 °F 23.60 in Calm   -999.0 mph 94% 0.00 in
21:16 27.5 °F 26.0 °F 23.61 in South 2.7 mph -999.0 mph 94% 0.00 in
21:31 27.0 °F 25.5 °F 23.61 in Calm   -999.0 mph 94% 0.00 in
21:46 26.8 °F 25.3 °F 23.61 in Calm   -999.0 mph 94% 0.00 in
22:01 26.8 °F 25.3 °F 23.61 in South 2.7 mph -999.0 mph 94% 0.00 in
22:17 26.6 °F 25.4 °F 23.61 in Calm   -999.0 mph 95% 0.00 in
22:32 26.2 °F 25.0 °F 23.61 in Calm   -999.0 mph 95% 0.00 in
22:47 26.2 °F 25.2 °F 23.60 in Calm   -999.0 mph 96% 0.00 in
23:02 26.1 °F 25.1 °F 23.60 in Calm   -999.0 mph 96% 0.00 in
23:17 25.9 °F 24.9 °F 23.59 in Calm   -999.0 mph 96% 0.00 in
23:33 25.7 °F 24.7 °F 23.59 in Calm   -999.0 mph 96% 0.00 in
23:48 25.5 °F 24.8 °F 23.59 in Calm   -999.0 mph 97% 0.00 in
Big Bear CA Weather